Manly, Iowa
Current Conditions -  °F | °C
As of 2:53 AM on Thursday 23 Oct 2014 (Local Time) from KMCW Reporting Station
Scattered Clouds Scattered Clouds  
Wind Chill: 50°   Ceiling: Unl
Heat Index: 50°   Visibility: 10mi
Dew Point: 45°   Wind: 10mph
Humidity: 83%   Direction: 160°SSE
Pressure: 30.06"   Gusts: NA
Location:  43.29°N, 93.2°W
Report Text: KMCW 230753Z AUTO 16009KT 10SM SCT100 10/07 A3006 RMK AO2 SLP177 T01000072
Loading
Personal Weather Stations






























Interactive Weather Map
Tropical Storm Tracking
New forecast layout! Learn more

10-Day Weather Forecast

Advertisements
Track Severe Weather on mobile